Aviation Digital Data Service (ADDS)

Output produced by METARs form (1640 UTC 22 July 2017)
found at http://www.aviationweather.gov/adds/metars/
 
METAR text: RODN 221556Z AUTO 01003KT 10SM CLR 26/24 A2986 RMK AO2 SLP116 T02590241 $
Conditions at: RODN (KADENA (USAFB-NA, JP) observed 1556 UTC 22 July 2017
Temperature: 25.9°C (79°F)
Dewpoint: 24.1°C (75°F) [RH = 90%]
Pressure (altimeter): 29.86 inches Hg (1011.3 mb)
[Sea-level pressure: 1011.6 mb]
Winds: from the N (10 degrees) at 3 MPH (3 knots; 1.6 m/s)
Visibility: 10 or more miles (16+ km)
Ceiling: at least 12,000 feet AGL
Clouds: sky clear below 12,000 feet AGL
Weather:
SOME DATA ABOVE MAY BE INACCURATE!!!
"$" is an indication the sensor requires maintenance

METAR text: ROTM 221558Z 02003KT 9999 FEW030 FEW100 29/24 A2988 RMK SLP101 STNPR29585 T02850242
Conditions at: ROTM (FUTENMA(US-MCAS), JP) observed 1558 UTC 22 July 2017
Temperature: 28.5°C (83°F)
Dewpoint: 24.2°C (76°F) [RH = 78%]
Pressure (altimeter): 29.88 inches Hg (1011.9 mb)
[Sea-level pressure: 1010.1 mb]
Winds: from the NNE (20 degrees) at 3 MPH (3 knots; 1.6 m/s)
Visibility: 6 or more miles (10+ km)
Ceiling: at least 12,000 feet AGL
Clouds: few clouds at 3000 feet AGL
few clouds at 10000 feet AGL
Weather: no significant weather observed at this time

METAR text: ROAH 221630Z 35006KT 9999 FEW022 29/24 Q1010 RMK 2CU022 A2985
Conditions at: ROAH (NAHA (CIV/JASDF), JP) observed 1630 UTC 22 July 2017
Temperature: 29.0°C (84°F)
Dewpoint: 24.0°C (75°F) [RH = 74%]
Pressure (altimeter): 29.82 inches Hg (1010.0 mb)
Winds: from the N (350 degrees) at 7 MPH (6 knots; 3.1 m/s)
Visibility: 6 or more miles (10+ km)
Ceiling: at least 12,000 feet AGL
Clouds: few clouds at 2200 feet AGL
Weather: no significant weather observed at this time